createdAt,value
2023-05-19T00:07:18.255Z,5.07
2023-05-19T00:11:20.291Z,4.72
2023-05-19T00:15:22.585Z,4.68
2023-05-19T00:19:27.584Z,5.63
2023-05-19T00:23:30.635Z,4.57
2023-05-19T00:27:32.180Z,5.50
2023-05-19T00:31:33.886Z,5.22
2023-05-19T00:35:35.552Z,5.00
2023-05-19T00:39:38.454Z,4.93
2023-05-19T00:43:40.060Z,4.65
2023-05-19T00:47:41.669Z,4.43
2023-05-19T00:51:43.279Z,4.32
2023-05-19T00:55:47.647Z,4.38
2023-05-19T00:59:49.243Z,4.43
2023-05-19T01:03:50.992Z,5.20
2023-05-19T01:07:52.671Z,4.43
2023-05-19T01:11:55.596Z,4.53
2023-05-19T01:16:05.523Z,4.50
2023-05-19T01:20:14.935Z,4.05
2023-05-19T01:24:41.370Z,4.88
2023-05-19T01:29:07.576Z,4.93
2023-05-19T01:33:13.473Z,5.18
2023-05-19T01:37:16.121Z,4.68
2023-05-19T01:41:18.884Z,4.63
2023-05-19T01:45:21.292Z,3.80
2023-05-19T01:49:24.161Z,4.53
2023-05-19T01:53:26.032Z,5.05
2023-05-19T01:57:33.622Z,4.82
2023-05-19T02:01:48.429Z,4.13
2023-05-19T02:05:59.241Z,4.47
2023-05-19T02:10:05.715Z,4.13
2023-05-19T02:14:21.267Z,4.38
2023-05-19T02:18:23.441Z,4.85
2023-05-19T02:22:26.343Z,4.47
2023-05-19T02:26:28.145Z,4.10
2023-05-19T02:30:29.988Z,4.10
2023-05-19T02:34:31.635Z,3.92
2023-05-19T02:38:34.525Z,5.45
2023-05-19T02:42:36.057Z,5.30
2023-05-19T02:46:37.703Z,4.70
2023-05-19T02:50:39.297Z,3.88
2023-05-19T02:54:42.305Z,5.05
2023-05-19T02:58:44.069Z,4.85
2023-05-19T03:02:45.736Z,3.90
2023-05-19T03:06:47.327Z,4.50
2023-05-19T03:10:50.196Z,4.35
2023-05-19T03:14:51.799Z,4.20
2023-05-19T03:18:53.369Z,4.28
2023-05-19T03:22:54.912Z,4.65
2023-05-19T03:26:57.790Z,4.43
2023-05-19T03:30:59.350Z,4.70
2023-05-19T03:35:00.880Z,4.55
2023-05-19T03:39:02.406Z,5.25
2023-05-19T03:43:05.306Z,4.78
2023-05-19T03:47:07.118Z,5.05
2023-05-19T03:51:14.515Z,3.88
2023-05-19T03:55:16.052Z,4.40
2023-05-19T03:59:18.938Z,3.75
2023-05-19T04:03:20.626Z,4.95
2023-05-19T04:07:22.372Z,4.47
2023-05-19T04:11:23.903Z,4.55
2023-05-19T04:15:26.805Z,4.22
2023-05-19T04:19:28.383Z,5.03
2023-05-19T04:23:29.959Z,4.47
2023-05-19T04:27:31.481Z,4.50
2023-05-19T04:31:34.619Z,4.63
2023-05-19T04:39:37.622Z,5.05
2023-05-19T04:43:39.207Z,4.05
2023-05-19T04:47:42.245Z,4.10
2023-05-19T04:55:45.229Z,4.70
2023-05-19T04:59:46.766Z,3.97
2023-05-19T05:03:49.683Z,4.47
2023-05-19T05:07:51.303Z,4.55
2023-05-19T05:11:53.566Z,4.55
2023-05-19T05:15:55.671Z,4.70
2023-05-19T05:19:59.313Z,4.65
2023-05-19T05:24:01.444Z,4.68
2023-05-19T05:28:03.014Z,4.35
2023-05-19T05:32:05.266Z,4.22
2023-05-19T05:36:08.915Z,4.60
2023-05-19T05:40:11.385Z,4.65
2023-05-19T05:44:12.999Z,4.88
2023-05-19T05:48:15.342Z,4.68
2023-05-19T05:52:20.996Z,5.03
2023-05-19T05:56:23.080Z,4.30
2023-05-19T06:00:24.632Z,4.65
2023-05-19T06:04:26.166Z,6.03
2023-05-19T06:08:29.160Z,4.75
2023-05-19T06:12:30.758Z,4.63
2023-05-19T06:16:32.399Z,4.22
2023-05-19T06:20:34.176Z,4.15
2023-05-19T06:24:39.372Z,6.10
2023-05-19T06:28:41.148Z,4.68
2023-05-19T06:32:44.546Z,4.07
2023-05-19T06:36:46.121Z,4.30
2023-05-19T06:40:49.006Z,4.28
2023-05-19T06:44:50.983Z,4.72
2023-05-19T06:48:52.504Z,4.53
2023-05-19T06:52:54.291Z,4.80
2023-05-19T06:56:57.166Z,4.20
2023-05-19T07:00:58.688Z,4.53
2023-05-19T07:05:00.396Z,4.18
2023-05-19T07:09:01.923Z,4.40
2023-05-19T07:13:05.064Z,3.88
2023-05-19T07:17:06.594Z,4.65
2023-05-19T07:21:08.149Z,4.35
2023-05-19T07:25:10.204Z,4.05
2023-05-19T07:29:13.085Z,4.03
2023-05-19T07:33:14.659Z,4.47
2023-05-19T07:37:16.312Z,3.70
2023-05-19T07:41:17.828Z,3.50
2023-05-19T07:45:20.780Z,4.50
2023-05-19T07:49:22.351Z,3.67
2023-05-19T07:53:23.956Z,3.92
2023-05-19T07:57:25.518Z,3.42
2023-05-19T08:01:29.649Z,3.58
2023-05-19T08:05:31.181Z,3.10
2023-05-19T08:09:32.786Z,3.25
2023-05-19T08:13:34.424Z,2.97
2023-05-19T08:17:37.391Z,2.92
2023-05-19T08:25:40.325Z,2.58
2023-05-19T08:29:41.931Z,2.58
2023-05-19T08:33:45.073Z,3.13
2023-05-19T08:37:46.621Z,2.90
2023-05-19T08:41:48.214Z,3.38
2023-05-19T08:45:50.139Z,3.17
2023-05-19T08:49:56.025Z,3.40
2023-05-19T08:54:04.490Z,3.00
2023-05-19T08:58:06.318Z,3.10
2023-05-19T09:02:10.617Z,3.45
2023-05-19T09:06:13.498Z,3.13
2023-05-19T09:14:16.417Z,3.30
2023-05-19T09:18:17.993Z,3.60
2023-05-19T09:22:21.012Z,4.03
2023-05-19T09:26:22.537Z,3.92
2023-05-19T09:30:24.286Z,3.22
2023-05-19T09:34:26.169Z,3.90
2023-05-19T09:38:29.635Z,3.72
2023-05-19T09:42:37.646Z,3.45
2023-05-19T09:46:47.477Z,3.22
2023-05-19T09:50:49.364Z,2.97
2023-05-19T09:54:53.117Z,3.10
2023-05-19T09:58:54.726Z,3.22
2023-05-19T10:02:56.851Z,3.03
2023-05-19T10:06:59.188Z,2.87
2023-05-19T10:11:03.080Z,2.57
2023-05-19T10:15:05.970Z,3.42
2023-05-19T10:19:07.880Z,2.97
2023-05-19T10:23:09.735Z,3.33
2023-05-19T10:27:14.859Z,2.80
2023-05-19T10:31:21.503Z,2.97
2023-05-19T10:35:37.029Z,2.50
2023-05-19T10:39:43.156Z,3.03
2023-05-19T10:43:59.703Z,2.70
2023-05-19T10:48:01.403Z,2.70
2023-05-19T10:52:03.430Z,2.80
2023-05-19T10:56:05.558Z,3.05
2023-05-19T11:00:27.742Z,2.60
2023-05-19T11:04:40.027Z,2.95
2023-05-19T11:08:41.624Z,3.13
2023-05-19T11:12:45.538Z,2.55
2023-05-19T11:16:51.321Z,3.05
2023-05-19T11:20:56.161Z,2.83
2023-05-19T11:24:57.999Z,2.95
2023-05-19T11:29:00.290Z,2.85
2023-05-19T11:33:03.725Z,2.90
2023-05-19T11:37:06.340Z,2.70
2023-05-19T11:41:07.887Z,3.00
2023-05-19T11:45:10.270Z,2.80
2023-05-19T11:49:14.884Z,2.63
2023-05-19T11:53:18.116Z,2.45
2023-05-19T11:57:20.238Z,2.47
2023-05-19T12:01:23.826Z,2.50
2023-05-19T12:05:27.259Z,2.80
2023-05-19T12:09:28.857Z,2.35
2023-05-19T12:13:30.436Z,2.92
2023-05-19T12:17:32.731Z,2.13
2023-05-19T12:21:36.167Z,2.42
2023-05-19T12:25:37.943Z,2.47
2023-05-19T12:29:40.336Z,3.10
2023-05-19T12:33:42.027Z,3.08
2023-05-19T12:37:44.956Z,2.50
2023-05-19T12:45:48.095Z,2.50
2023-05-19T12:49:56.750Z,3.08
2023-05-19T12:54:02.495Z,2.90
2023-05-19T12:58:06.992Z,2.70
2023-05-19T13:02:08.861Z,2.75
2023-05-19T13:06:10.744Z,2.53
2023-05-19T13:10:13.645Z,3.50
2023-05-19T13:18:17.533Z,2.58
2023-05-19T13:22:19.156Z,3.00
2023-05-19T13:26:22.037Z,2.80
2023-05-19T13:34:24.984Z,1.98
2023-05-19T13:38:26.572Z,2.50
2023-05-19T13:42:29.482Z,2.70
2023-05-19T13:50:47.424Z,2.67
2023-05-19T13:54:49.484Z,2.95
2023-05-19T13:58:52.393Z,2.60
2023-05-19T14:06:55.603Z,3.13
2023-05-19T14:10:57.186Z,2.90
2023-05-19T14:15:00.924Z,2.63
2023-05-19T14:19:02.481Z,2.70
2023-05-19T14:23:04.086Z,2.75
2023-05-19T14:27:06.066Z,2.70
2023-05-19T14:31:12.468Z,2.58
2023-05-19T14:35:14.173Z,2.78
2023-05-19T14:39:15.797Z,3.78
2023-05-19T14:43:17.355Z,3.28
2023-05-19T14:47:20.284Z,2.97
2023-05-19T14:55:23.325Z,3.25
2023-05-19T14:59:25.007Z,2.42
2023-05-19T15:03:27.935Z,2.95
2023-05-19T15:11:30.955Z,4.32
2023-05-19T15:15:32.542Z,3.58
2023-05-19T15:19:35.598Z,3.30
2023-05-19T15:27:38.627Z,3.17
2023-05-19T15:31:40.289Z,3.70
2023-05-19T15:35:43.315Z,3.28
2023-05-19T15:39:45.964Z,3.40
2023-05-19T15:43:47.495Z,3.28
2023-05-19T15:47:49.120Z,3.47
2023-05-19T15:51:52.040Z,3.70
2023-05-19T15:59:54.984Z,3.05
2023-05-19T16:03:56.898Z,3.30
2023-05-19T16:07:59.871Z,3.30
2023-05-19T16:16:02.949Z,3.42
2023-05-19T16:20:05.735Z,3.30
2023-05-19T16:24:08.660Z,2.97
2023-05-19T16:32:11.742Z,3.35
2023-05-19T16:36:13.400Z,3.50
2023-05-19T16:40:16.606Z,3.80
2023-05-19T16:44:18.193Z,3.22
2023-05-19T16:48:19.805Z,3.70
2023-05-19T16:52:21.419Z,3.00
2023-05-19T16:56:24.339Z,3.67
2023-05-19T17:00:25.934Z,3.28
2023-05-19T17:04:29.451Z,3.70
2023-05-19T17:08:32.282Z,3.35
2023-05-19T17:12:35.206Z,3.67
2023-05-19T17:16:37.036Z,3.67
2023-05-19T17:20:38.624Z,3.53
2023-05-19T17:24:40.214Z,3.55
2023-05-19T17:28:43.119Z,4.15
2023-05-19T17:32:44.789Z,4.20
2023-05-19T17:36:46.457Z,4.30
2023-05-19T17:40:48.007Z,4.25
2023-05-19T17:44:50.898Z,4.97
2023-05-19T17:48:52.456Z,4.18
2023-05-19T17:52:54.522Z,4.60
2023-05-19T17:56:58.512Z,3.80
2023-05-19T18:01:01.780Z,4.35
2023-05-19T18:05:04.310Z,4.32
2023-05-19T18:09:06.850Z,4.10
2023-05-19T18:13:10.298Z,4.72
2023-05-19T18:17:13.275Z,4.30
2023-05-19T18:21:14.834Z,4.13
2023-05-19T18:25:16.599Z,4.95
2023-05-19T18:29:18.142Z,3.95
2023-05-19T18:33:22.266Z,4.68
2023-05-19T18:37:26.694Z,3.63
2023-05-19T18:41:28.404Z,5.18
2023-05-19T18:45:29.959Z,4.43
2023-05-19T18:49:33.023Z,4.78
2023-05-19T18:57:35.992Z,4.68
2023-05-19T19:01:37.684Z,4.78
2023-05-19T19:05:40.736Z,4.45
2023-05-19T19:09:42.257Z,4.55
2023-05-19T19:13:43.799Z,4.80
2023-05-19T19:17:45.359Z,4.63
2023-05-19T19:21:48.257Z,5.50
2023-05-19T19:25:50.078Z,5.00
2023-05-19T19:29:51.665Z,4.78
2023-05-19T19:33:53.206Z,5.55
2023-05-19T19:37:56.106Z,5.25
2023-05-19T19:41:57.689Z,5.30
2023-05-19T19:45:59.661Z,5.57
2023-05-19T19:50:01.196Z,5.75
2023-05-19T19:54:04.331Z,6.57
2023-05-19T20:02:07.240Z,6.00
2023-05-19T20:06:08.842Z,5.43
2023-05-19T20:10:12.079Z,5.60
2023-05-19T20:14:13.603Z,5.63
2023-05-19T20:18:15.312Z,5.35
2023-05-19T20:22:16.996Z,6.85
2023-05-19T20:26:19.863Z,5.35
2023-05-19T20:30:21.488Z,5.25
2023-05-19T20:34:23.039Z,5.68
2023-05-19T20:38:24.631Z,5.72
2023-05-19T20:42:27.536Z,6.95
2023-05-19T20:46:29.170Z,5.40
2023-05-19T20:50:30.836Z,5.65
2023-05-19T20:54:32.514Z,5.47
2023-05-19T20:58:35.411Z,6.45
2023-05-19T21:02:37.095Z,5.68
2023-05-19T21:06:38.693Z,5.45
2023-05-19T21:10:40.276Z,5.97
2023-05-19T21:14:43.148Z,5.25
2023-05-19T21:18:44.718Z,5.95
2023-05-19T21:22:46.320Z,5.65
2023-05-19T21:26:47.846Z,6.50
2023-05-19T21:30:50.750Z,6.50
2023-05-19T21:34:52.285Z,6.80
2023-05-19T21:38:53.838Z,6.30
2023-05-19T21:42:55.352Z,6.45
2023-05-19T21:46:58.387Z,6.78
2023-05-19T21:50:59.955Z,5.93
2023-05-19T21:55:01.470Z,7.05
2023-05-19T21:59:03.266Z,6.43
2023-05-19T22:03:06.170Z,5.75
2023-05-19T22:07:07.732Z,5.75
2023-05-19T22:11:09.274Z,5.97
2023-05-19T22:15:11.707Z,6.88
2023-05-19T22:19:14.684Z,7.25
2023-05-19T22:23:16.249Z,6.82
2023-05-19T22:27:18.343Z,6.70
2023-05-19T22:31:19.867Z,7.50
2023-05-19T22:35:22.924Z,6.28
2023-05-19T22:43:25.793Z,6.40
2023-05-19T22:47:27.427Z,6.32
2023-05-19T22:51:30.287Z,6.40
2023-05-19T22:55:32.023Z,6.72
2023-05-19T22:59:33.704Z,6.20
2023-05-19T23:03:35.221Z,7.28
2023-05-19T23:07:38.095Z,6.63
2023-05-19T23:11:39.588Z,7.78
2023-05-19T23:15:41.096Z,6.60
2023-05-19T23:19:42.597Z,6.70
2023-05-19T23:23:45.516Z,7.72
2023-05-19T23:27:47.073Z,6.75
2023-05-19T23:31:48.800Z,7.05
2023-05-19T23:35:50.718Z,6.95
2023-05-19T23:39:53.545Z,7.40
2023-05-19T23:43:55.429Z,6.68
2023-05-19T23:47:57.072Z,6.95
2023-05-19T23:51:58.576Z,7.38
2023-05-19T23:56:01.818Z,7.22
